Time;durP1;ratioP1;P1;durP2;ratioP2;P2;SDS_P1;SDS_P2;PMS_P1;PMS_P2;Temp;Humidity;BMP_temperature;BMP_pressure;BME280_temperature;BME280_humidity;BME280_pressure;Samples;Min_cycle;Max_cycle;Signal;HPM_P1;HPM_P2
2023/02/03 00:00:35;;;;;;;2.10;0.65;;;5.90;99.90;;;;;;5069633;28;20028;-65
2023/02/03 00:03:00;;;;;;;2.97;0.60;;;5.90;99.90;;;;;;5069647;28;20051;-67
2023/02/03 00:05:26;;;;;;;2.55;0.93;;;5.80;99.90;;;;;;5065278;28;20048;-65
2023/02/03 00:07:52;;;;;;;1.48;0.70;;;5.80;99.90;;;;;;5068540;28;20142;-65
2023/02/03 00:10:20;;;;;;;0.98;0.40;;;5.80;99.90;;;;;;5068238;28;20112;-65
2023/02/03 00:12:48;;;;;;;1.50;0.60;;;5.80;99.90;;;;;;5068398;28;20075;-65
2023/02/03 00:15:13;;;;;;;1.45;0.63;;;5.80;99.90;;;;;;5065641;28;20033;-65
2023/02/03 00:17:39;;;;;;;1.40;0.60;;;5.80;99.90;;;;;;5071582;28;20585;-65
2023/02/03 00:20:05;;;;;;;1.98;0.55;;;5.80;99.90;;;;;;5068855;28;20037;-65
2023/02/03 00:22:31;;;;;;;0.80;0.50;;;5.80;99.90;;;;;;5071237;28;20027;-65
2023/02/03 00:24:57;;;;;;;1.08;0.40;;;5.80;99.90;;;;;;5068167;28;20041;-66
2023/02/03 00:27:22;;;;;;;0.70;0.38;;;5.70;99.90;;;;;;5071325;28;20233;-65
2023/02/03 00:29:48;;;;;;;1.70;0.40;;;5.70;99.90;;;;;;5069525;28;20036;-65
2023/02/03 00:32:13;;;;;;;1.75;0.68;;;5.70;99.90;;;;;;5074957;28;20028;-64
2023/02/03 00:34:39;;;;;;;1.33;0.50;;;5.70;99.90;;;;;;5075700;28;20619;-65
2023/02/03 00:37:04;;;;;;;2.42;0.55;;;5.70;99.90;;;;;;5075481;28;20036;-65
2023/02/03 00:39:30;;;;;;;1.70;0.47;;;5.70;99.90;;;;;;5076867;28;20036;-66
2023/02/03 00:41:55;;;;;;;2.13;0.47;;;5.80;99.90;;;;;;5078070;28;20028;-67
2023/02/03 00:44:21;;;;;;;1.13;0.43;;;5.80;99.90;;;;;;5075460;28;20414;-66
2023/02/03 00:46:47;;;;;;;0.90;0.50;;;5.80;99.90;;;;;;5073516;28;20028;-66
2023/02/03 00:49:12;;;;;;;1.67;0.60;;;5.80;99.90;;;;;;5078557;28;20036;-65
2023/02/03 00:51:38;;;;;;;2.08;0.50;;;5.80;99.90;;;;;;5080192;28;20099;-65
2023/02/03 00:54:03;;;;;;;0.45;0.40;;;5.80;99.90;;;;;;5071835;28;20033;-65
2023/02/03 00:56:29;;;;;;;1.27;0.40;;;5.70;99.90;;;;;;5075412;28;20067;-65
2023/02/03 00:58:55;;;;;;;0.50;0.30;;;5.80;99.90;;;;;;5076839;28;20032;-66
2023/02/03 01:01:20;;;;;;;0.45;0.32;;;5.80;99.90;;;;;;5081440;28;20030;-64
2023/02/03 01:03:46;;;;;;;1.15;0.52;;;5.80;99.90;;;;;;5071018;28;20044;-65
2023/02/03 01:06:15;;;;;;;1.75;0.68;;;5.70;99.90;;;;;;5079596;28;20465;-64
2023/02/03 01:08:41;;;;;;;0.63;0.52;;;5.70;99.90;;;;;;5079863;28;20028;-64
2023/02/03 01:11:12;;;;;;;0.55;0.50;;;5.70;99.90;;;;;;5078408;28;20050;-65
2023/02/03 01:13:38;;;;;;;1.38;0.40;;;5.70;99.90;;;;;;5078244;28;20033;-66
2023/02/03 01:16:07;;;;;;;0.93;0.50;;;5.70;99.90;;;;;;5078577;28;20031;-66
2023/02/03 01:18:33;;;;;;;0.52;0.30;;;5.80;99.90;;;;;;5079044;28;20040;-65
2023/02/03 01:21:07;;;;;;;0.93;0.50;;;5.80;99.90;;;;;;5077989;28;20033;-66
2023/02/03 01:23:34;;;;;;;0.85;0.30;;;5.80;99.90;;;;;;5064076;28;20041;-65
2023/02/03 01:26:09;;;;;;;1.45;0.75;;;5.70;99.90;;;;;;5071855;28;20379;-65
2023/02/03 01:28:35;;;;;;;2.15;0.80;;;5.70;99.90;;;;;;5074842;28;20078;-65
2023/02/03 01:31:19;;;;;;;1.42;0.40;;;5.80;99.90;;;;;;5081579;28;20021;-65
2023/02/03 01:33:47;;;;;;;1.17;0.63;;;5.90;99.90;;;;;;5073712;28;20032;-65
2023/02/03 01:36:14;;;;;;;0.57;0.50;;;5.80;99.90;;;;;;5073009;28;20350;-64
2023/02/03 01:38:40;;;;;;;1.65;0.50;;;5.80;99.90;;;;;;5073029;28;20056;-65
2023/02/03 01:41:08;;;;;;;2.08;0.73;;;5.80;99.90;;;;;;5062912;28;20113;-65
2023/02/03 01:43:39;;;;;;;2.28;0.60;;;5.80;99.90;;;;;;5068816;28;20064;-64
2023/02/03 01:46:21;;;;;;;1.42;0.90;;;5.80;99.90;;;;;;5071296;28;20028;-65
2023/02/03 01:48:47;;;;;;;0.77;0.50;;;5.80;99.90;;;;;;5064120;28;20028;-64
2023/02/03 01:51:13;;;;;;;1.45;0.70;;;5.80;99.90;;;;;;5072084;28;20033;-64
2023/02/03 01:53:39;;;;;;;0.98;0.70;;;5.80;99.90;;;;;;5077302;28;20147;-65
2023/02/03 01:56:06;;;;;;;1.17;0.70;;;5.80;99.90;;;;;;5070847;28;20374;-65
2023/02/03 01:58:38;;;;;;;3.53;1.30;;;5.70;99.90;;;;;;5069289;28;20043;-65
2023/02/03 02:01:04;;;;;;;1.45;0.60;;;5.80;99.90;;;;;;5071830;28;20385;-65
2023/02/03 02:03:41;;;;;;;2.22;0.60;;;5.80;99.90;;;;;;5071766;28;20049;-65
2023/02/03 02:06:09;;;;;;;2.17;0.88;;;5.80;99.90;;;;;;5071599;28;20030;-65
2023/02/03 02:08:38;;;;;;;1.80;0.70;;;5.90;99.90;;;;;;5071463;28;20029;-64
2023/02/03 02:11:05;;;;;;;1.88;0.60;;;5.80;99.90;;;;;;5072041;28;20040;-65
2023/02/03 02:13:36;;;;;;;1.85;0.70;;;5.80;99.90;;;;;;5073174;28;20067;-65
2023/02/03 02:16:27;;;;;;;3.72;0.70;;;5.80;99.90;;;;;;5071067;28;20111;-65
2023/02/03 02:19:20;;;;;;;2.10;0.90;;;5.80;99.90;;;;;;5074214;28;20032;-66
2023/02/03 02:22:18;;;;;;;0.70;0.60;;;5.80;99.90;;;;;;5080096;28;20089;-65
2023/02/03 02:25:06;;;;;;;2.78;1.13;;;5.80;99.90;;;;;;5072706;28;20032;-65
2023/02/03 02:27:52;;;;;;;3.10;0.93;;;5.70;99.90;;;;;;5070387;28;20499;-65
2023/02/03 02:30:29;;;;;;;2.88;0.90;;;5.80;99.90;;;;;;5070618;28;20023;-66
2023/02/03 02:33:14;;;;;;;6.47;1.42;;;5.70;99.90;;;;;;5072180;28;20032;-65
2023/02/03 02:36:12;;;;;;;2.00;0.80;;;5.70;99.90;;;;;;5069550;28;20089;-66
2023/02/03 02:38:41;;;;;;;2.50;0.90;;;5.70;99.90;;;;;;5072764;28;20028;-65
2023/02/03 02:41:11;;;;;;;1.95;0.82;;;5.70;99.90;;;;;;5071337;28;20052;-65
2023/02/03 02:43:41;;;;;;;;;;;5.70;99.90;;;;;;5066949;28;20402;-66
2023/02/03 02:46:16;;;;;;;1.42;0.82;;;5.70;99.90;;;;;;5067292;28;19953;-65
2023/02/03 02:49:00;;;;;;;2.75;0.93;;;5.60;99.90;;;;;;5066846;28;20496;-66
2023/02/03 02:51:28;;;;;;;4.13;1.25;;;5.60;99.90;;;;;;5073396;28;20107;-66
2023/02/03 02:53:58;;;;;;;4.07;1.13;;;5.60;99.90;;;;;;5059836;28;20037;-65
2023/02/03 02:56:26;;;;;;;1.77;1.13;;;5.50;99.90;;;;;;5070357;28;20032;-66
2023/02/03 02:58:53;;;;;;;1.70;0.90;;;5.50;99.90;;;;;;5062781;28;20046;-67
2023/02/03 03:01:19;;;;;;;2.95;1.08;;;5.50;99.90;;;;;;5071723;28;20769;-65
2023/02/03 03:03:45;;;;;;;1.63;0.70;;;5.60;99.90;;;;;;5072638;28;20044;-66
2023/02/03 03:06:19;;;;;;;2.88;0.75;;;5.60;99.90;;;;;;5070594;28;20024;-66
2023/02/03 03:08:56;;;;;;;1.38;0.70;;;5.60;99.90;;;;;;5071946;28;20027;-66
2023/02/03 03:11:26;;;;;;;3.38;1.05;;;5.60;99.90;;;;;;5067577;28;20069;-65
2023/02/03 03:13:52;;;;;;;;;;;5.60;99.90;;;;;;5075743;28;20106;-65
2023/02/03 03:16:23;;;;;;;2.55;1.17;;;5.70;99.90;;;;;;5064336;28;19904;-65
2023/02/03 03:18:56;;;;;;;2.03;0.60;;;5.70;99.90;;;;;;5066852;28;20036;-64
2023/02/03 03:21:27;;;;;;;1.60;0.60;;;5.80;99.90;;;;;;5070142;28;20032;-64
2023/02/03 03:23:55;;;;;;;0.80;0.40;;;5.80;99.90;;;;;;5068890;28;20032;-64
2023/02/03 03:26:56;;;;;;;2.63;0.52;;;5.80;99.90;;;;;;5071550;28;20044;-64
2023/02/03 03:29:25;;;;;;;;;;;5.80;99.90;;;;;;5034844;28;20093;-64
2023/02/03 03:31:50;;;;;;;1.65;0.45;;;5.80;99.90;;;;;;5069971;28;19961;-64
2023/02/03 03:34:17;;;;;;;0.60;0.38;;;5.70;99.90;;;;;;5068107;28;20620;-65
2023/02/03 03:36:59;;;;;;;2.72;0.50;;;5.70;99.90;;;;;;5069665;28;20029;-65
2023/02/03 03:39:32;;;;;;;0.40;0.30;;;5.70;99.90;;;;;;5071333;28;20067;-64
2023/02/03 03:42:09;;;;;;;1.55;0.50;;;5.70;99.90;;;;;;5072447;28;20334;-66
2023/02/03 03:44:55;;;;;;;1.45;0.40;;;5.70;99.90;;;;;;5051001;28;20375;-65
2023/02/03 03:47:31;;;;;;;1.45;0.50;;;5.70;99.90;;;;;;5068401;28;20090;-64
2023/02/03 03:50:00;;;;;;;0.40;0.20;;;5.70;99.90;;;;;;5067631;28;20032;-66
2023/02/03 03:52:31;;;;;;;0.30;0.30;;;5.70;99.90;;;;;;5072280;28;20024;-65
2023/02/03 03:54:59;;;;;;;1.17;0.43;;;5.70;99.90;;;;;;5069139;28;20813;-66
2023/02/03 03:57:34;;;;;;;1.45;0.30;;;5.70;99.90;;;;;;5070984;28;20400;-64
2023/02/03 04:00:04;;;;;;;0.73;0.30;;;5.80;99.90;;;;;;5067479;28;20422;-65
2023/02/03 04:02:31;;;;;;;1.23;0.32;;;5.80;99.90;;;;;;5069860;28;20037;-64
2023/02/03 04:04:59;;;;;;;2.40;0.38;;;5.80;99.90;;;;;;5069904;28;20082;-66
2023/02/03 04:07:43;;;;;;;1.25;0.40;;;5.80;99.90;;;;;;5070061;28;20354;-64
2023/02/03 04:10:30;;;;;;;0.47;0.40;;;5.80;99.90;;;;;;5068496;28;20028;-65
2023/02/03 04:12:56;;;;;;;1.00;0.57;;;5.80;99.90;;;;;;5069276;28;20078;-65
2023/02/03 04:15:22;;;;;;;1.80;0.45;;;5.70;99.90;;;;;;5070340;28;20032;-65
2023/02/03 04:17:47;;;;;;;0.73;0.45;;;5.80;99.90;;;;;;5074868;28;20051;-64
2023/02/03 04:20:14;;;;;;;1.17;0.50;;;5.80;99.90;;;;;;5074123;28;20036;-64
2023/02/03 04:22:39;;;;;;;0.40;0.30;;;5.80;99.90;;;;;;5074007;28;20029;-65
2023/02/03 04:25:05;;;;;;;2.28;0.60;;;5.80;99.90;;;;;;5072258;28;20055;-66
2023/02/03 04:27:31;;;;;;;0.95;0.50;;;5.70;99.90;;;;;;5090062;28;20062;-65
2023/02/03 04:29:56;;;;;;;0.75;0.43;;;5.70;99.90;;;;;;5094076;28;20112;-67
2023/02/03 04:32:22;;;;;;;4.70;0.77;;;5.60;99.90;;;;;;5088986;28;20028;-66
2023/02/03 04:34:47;;;;;;;2.28;0.60;;;5.50;99.90;;;;;;5100187;28;20032;-66
2023/02/03 04:37:13;;;;;;;2.17;0.90;;;5.40;99.90;;;;;;5095499;28;20081;-65
2023/02/03 04:39:39;;;;;;;0.70;0.40;;;5.40;99.90;;;;;;5101010;28;20358;-65
2023/02/03 04:42:04;;;;;;;2.30;0.70;;;5.30;99.90;;;;;;5101669;28;20127;-65
2023/02/03 04:44:30;;;;;;;1.25;0.50;;;5.20;99.90;;;;;;5093655;28;20075;-66
2023/02/03 04:46:55;;;;;;;1.90;0.75;;;5.10;99.90;;;;;;5098798;28;20027;-65
2023/02/03 04:49:21;;;;;;;2.08;0.70;;;5.00;99.90;;;;;;5096303;28;20024;-65
2023/02/03 04:51:50;;;;;;;2.08;0.60;;;5.00;99.90;;;;;;5094172;28;20069;-65
2023/02/03 04:54:16;;;;;;;1.20;0.68;;;4.90;99.90;;;;;;5104996;28;20100;-66
2023/02/03 04:56:41;;;;;;;1.08;0.70;;;4.90;99.90;;;;;;5095224;28;20118;-66
2023/02/03 04:59:07;;;;;;;1.08;0.60;;;4.90;99.90;;;;;;5105244;28;20024;-66
2023/02/03 05:01:33;;;;;;;1.38;0.60;;;4.90;99.90;;;;;;5094492;28;20119;-66
2023/02/03 05:03:59;;;;;;;0.80;0.40;;;4.90;99.90;;;;;;5093237;28;20434;-66
2023/02/03 05:06:27;;;;;;;0.65;0.40;;;4.90;99.90;;;;;;5088192;28;20031;-66
2023/02/03 05:08:53;;;;;;;1.65;0.77;;;4.90;99.90;;;;;;5087092;28;20039;-65
2023/02/03 05:11:19;;;;;;;1.25;0.70;;;5.00;99.90;;;;;;5093234;28;20126;-66
2023/02/03 05:13:45;;;;;;;1.67;0.60;;;5.00;99.90;;;;;;5090136;28;20103;-64
2023/02/03 05:16:10;;;;;;;3.08;0.57;;;5.00;99.90;;;;;;5092296;28;20032;-65
2023/02/03 05:18:36;;;;;;;3.88;0.60;;;5.00;99.90;;;;;;5091451;28;20031;-65
2023/02/03 05:21:01;;;;;;;2.58;0.50;;;5.00;99.90;;;;;;5092520;28;20036;-66
2023/02/03 05:23:27;;;;;;;0.68;0.52;;;5.00;99.90;;;;;;5092976;28;20036;-66
2023/02/03 05:25:52;;;;;;;0.90;0.50;;;5.00;99.90;;;;;;5094061;28;20455;-65
2023/02/03 05:28:18;;;;;;;3.63;0.55;;;5.00;99.90;;;;;;5092550;28;20027;-66
2023/02/03 05:30:45;;;;;;;2.20;0.75;;;5.00;99.90;;;;;;5092225;28;20123;-65
2023/02/03 05:33:10;;;;;;;2.35;0.65;;;4.90;99.90;;;;;;5074056;28;20123;-66
2023/02/03 05:35:36;;;;;;;0.75;0.50;;;4.90;99.90;;;;;;5092585;28;20028;-66
2023/02/03 05:38:02;;;;;;;5.18;0.70;;;4.90;99.90;;;;;;5098372;28;20442;-67
2023/02/03 05:43:12;;;;;;;2.92;0.68;;;4.80;99.90;;;;;;5091735;28;20488;-66
2023/02/03 05:45:37;;;;;;;4.50;0.85;;;4.80;99.90;;;;;;5092942;28;20032;-65
2023/02/03 05:48:03;;;;;;;2.22;0.70;;;4.80;99.90;;;;;;5094181;28;20473;-65
2023/02/03 05:50:32;;;;;;;2.60;0.90;;;4.80;99.90;;;;;;5100322;28;20031;-65
2023/02/03 05:53:01;;;;;;;2.17;0.70;;;4.80;99.90;;;;;;5095363;28;20036;-66
2023/02/03 05:55:28;;;;;;;0.90;0.80;;;4.80;99.90;;;;;;5093097;28;20063;-66
2023/02/03 05:57:54;;;;;;;1.95;0.73;;;4.80;99.90;;;;;;5092666;28;20060;-65
2023/02/03 06:00:20;;;;;;;2.38;0.65;;;4.80;99.90;;;;;;5091804;28;20688;-64
2023/02/03 06:02:54;;;;;;;3.95;1.00;;;4.80;99.90;;;;;;5091777;28;20036;-65
2023/02/03 06:05:20;;;;;;;6.68;1.10;;;4.80;99.90;;;;;;5090969;28;20088;-64
2023/02/03 06:07:45;;;;;;;2.42;0.70;;;4.90;99.90;;;;;;5092890;28;20097;-65
2023/02/03 06:10:11;;;;;;;2.67;0.90;;;4.90;99.90;;;;;;5092813;28;20453;-65
2023/02/03 06:12:37;;;;;;;2.53;0.65;;;4.90;99.90;;;;;;5093077;28;20372;-64
2023/02/03 06:15:03;;;;;;;2.20;0.80;;;4.90;99.90;;;;;;5091527;28;20060;-65
2023/02/03 06:17:29;;;;;;;6.30;0.80;;;4.90;99.90;;;;;;5097907;28;20028;-64
2023/02/03 06:19:55;;;;;;;3.20;0.70;;;5.10;99.90;;;;;;5100043;28;20419;-64
2023/02/03 06:22:20;;;;;;;1.63;0.80;;;5.10;99.90;;;;;;5092081;28;20077;-65
2023/02/03 06:24:47;;;;;;;2.15;0.70;;;5.20;99.90;;;;;;5090617;28;20354;-65
2023/02/03 06:27:13;;;;;;;0.80;0.68;;;5.20;99.90;;;;;;5066335;28;20045;-64
2023/02/03 06:29:39;;;;;;;1.20;0.50;;;5.30;99.90;;;;;;5071591;28;20029;-65
2023/02/03 06:32:05;;;;;;;1.67;0.68;;;5.30;99.90;;;;;;5070735;28;20037;-65
2023/02/03 06:34:31;;;;;;;1.58;0.60;;;5.30;99.90;;;;;;5071776;28;20024;-66
2023/02/03 06:36:57;;;;;;;2.80;1.13;;;5.30;99.90;;;;;;5071268;28;20078;-66
2023/02/03 06:39:23;;;;;;;5.28;0.93;;;5.30;99.90;;;;;;5062906;28;20352;-67
2023/02/03 06:41:50;;;;;;;0.85;0.68;;;5.40;99.90;;;;;;5072168;28;20025;-65
2023/02/03 06:44:16;;;;;;;0.98;0.60;;;5.40;99.90;;;;;;5066814;28;20120;-66
2023/02/03 06:46:42;;;;;;;1.42;0.77;;;5.40;99.90;;;;;;5071267;28;20109;-70
2023/02/03 06:49:08;;;;;;;5.10;0.60;;;5.40;99.90;;;;;;5056857;28;20472;-71
2023/02/03 06:51:33;;;;;;;1.77;0.68;;;5.40;99.90;;;;;;5072713;28;20044;-64
2023/02/03 06:53:59;;;;;;;1.08;0.70;;;5.40;99.90;;;;;;5068638;28;20038;-70
2023/02/03 06:56:25;;;;;;;1.65;0.57;;;5.40;99.90;;;;;;5072667;28;20416;-69
2023/02/03 06:58:50;;;;;;;1.35;0.63;;;5.50;99.90;;;;;;5076114;28;20035;-68
2023/02/03 07:01:16;;;;;;;3.40;0.93;;;5.60;99.90;;;;;;5071430;28;20039;-68
2023/02/03 07:03:41;;;;;;;1.42;0.68;;;5.50;99.90;;;;;;5071038;28;20035;-69
2023/02/03 07:06:07;;;;;;;2.83;0.65;;;5.40;99.90;;;;;;5071146;28;20478;-70
2023/02/03 07:08:33;;;;;;;1.88;0.57;;;5.40;99.90;;;;;;5071306;28;20033;-76
2023/02/03 07:10:58;;;;;;;2.00;0.73;;;5.30;99.90;;;;;;5067300;28;20116;-66
2023/02/03 07:13:24;;;;;;;1.75;0.80;;;5.20;99.90;;;;;;5066870;28;20065;-68
2023/02/03 07:15:50;;;;;;;1.83;1.00;;;5.20;99.90;;;;;;5058214;28;20047;-67
2023/02/03 07:18:16;;;;;;;1.70;0.80;;;5.10;99.90;;;;;;5067736;28;20032;-67
2023/02/03 07:20:42;;;;;;;1.40;0.85;;;5.10;99.90;;;;;;5064766;28;20029;-69
2023/02/03 07:23:08;;;;;;;4.22;0.80;;;5.00;99.90;;;;;;5058862;28;20420;-69
2023/02/03 07:25:33;;;;;;;4.25;0.93;;;5.10;99.90;;;;;;5063300;28;20104;-68
2023/02/03 07:27:59;;;;;;;1.42;0.70;;;5.00;99.90;;;;;;5071345;28;20032;-70
2023/02/03 07:30:25;;;;;;;2.63;0.80;;;5.00;99.90;;;;;;5056122;28;20378;-68
2023/02/03 07:32:52;;;;;;;2.65;1.83;;;5.00;99.90;;;;;;5062492;28;20427;-69
2023/02/03 07:35:18;;;;;;;1.92;0.90;;;5.00;99.90;;;;;;5064396;28;20028;-67
2023/02/03 07:37:44;;;;;;;5.00;1.08;;;5.00;99.90;;;;;;5056369;28;20033;-69
2023/02/03 07:40:11;;;;;;;1.92;1.08;;;5.00;99.90;;;;;;5057889;28;20028;-68
2023/02/03 07:42:43;;;;;;;1.52;0.85;;;5.00;99.90;;;;;;5065524;28;20028;-69
2023/02/03 07:45:10;;;;;;;3.70;0.90;;;5.10;99.90;;;;;;5055025;28;20060;-68
2023/02/03 07:47:36;;;;;;;4.63;1.02;;;5.10;99.90;;;;;;5070687;28;20039;-68
2023/02/03 07:50:02;;;;;;;4.47;1.10;;;5.00;99.90;;;;;;5064249;28;20397;-68
2023/02/03 07:52:28;;;;;;;2.65;1.00;;;5.10;99.90;;;;;;5062539;28;20066;-68
2023/02/03 07:54:53;;;;;;;5.80;1.38;;;5.00;99.90;;;;;;5058291;28;20485;-68
2023/02/03 07:57:19;;;;;;;2.88;1.60;;;5.00;99.90;;;;;;5063626;28;20024;-68
2023/02/03 07:59:44;;;;;;;6.07;1.65;;;5.00;99.90;;;;;;5061579;28;20462;-68
2023/02/03 08:02:10;;;;;;;2.25;1.10;;;5.00;99.90;;;;;;5060775;28;20043;-67
2023/02/03 08:04:36;;;;;;;3.75;1.13;;;5.10;99.90;;;;;;5057098;28;20090;-68
2023/02/03 08:07:03;;;;;;;3.92;1.30;;;5.10;99.90;;;;;;5058894;28;20477;-69
2023/02/03 08:09:28;;;;;;;3.30;1.35;;;5.10;99.90;;;;;;5068518;28;20470;-68
2023/02/03 08:11:54;;;;;;;2.70;1.33;;;5.10;99.90;;;;;;5059167;28;20021;-68
2023/02/03 08:14:20;;;;;;;1.50;1.08;;;5.20;99.90;;;;;;5063749;28;20040;-68
2023/02/03 08:16:45;;;;;;;3.83;1.20;;;5.20;99.90;;;;;;5064833;28;20035;-69
2023/02/03 08:19:11;;;;;;;3.15;1.65;;;5.30;99.90;;;;;;5064002;28;20028;-68
2023/02/03 08:21:37;;;;;;;3.25;1.20;;;5.40;99.90;;;;;;5070846;28;20032;-69
2023/02/03 08:24:03;;;;;;;2.78;1.40;;;5.40;99.90;;;;;;5069685;28;20373;-68
2023/02/03 08:26:28;;;;;;;2.00;1.02;;;5.40;99.90;;;;;;5078559;28;20485;-68
2023/02/03 08:28:54;;;;;;;5.53;1.83;;;5.40;99.90;;;;;;5090526;28;20024;-69
2023/02/03 08:31:20;;;;;;;4.10;1.52;;;5.40;99.90;;;;;;5089184;28;20109;-69
2023/02/03 08:33:45;;;;;;;4.30;1.50;;;5.40;99.90;;;;;;5091467;28;20028;-69
2023/02/03 08:36:11;;;;;;;4.13;1.58;;;5.40;99.90;;;;;;5089171;28;20031;-68
2023/02/03 08:38:38;;;;;;;3.35;1.67;;;5.40;99.90;;;;;;5087796;28;20020;-69
2023/02/03 08:41:16;;;;;;;3.08;1.65;;;5.30;99.90;;;;;;5077655;28;20033;-68
2023/02/03 08:43:43;;;;;;;5.28;1.65;;;5.30;99.90;;;;;;5085067;28;20894;-68
2023/02/03 08:46:09;;;;;;;2.03;1.52;;;5.30;99.90;;;;;;5086734;28;20538;-68
2023/02/03 08:48:35;;;;;;;3.08;1.50;;;5.30;99.90;;;;;;5089330;28;20077;-69
2023/02/03 08:51:01;;;;;;;2.55;1.42;;;5.30;99.90;;;;;;5082656;28;20103;-69
2023/02/03 08:53:27;;;;;;;3.60;1.40;;;5.40;99.90;;;;;;5079504;28;20040;-68
2023/02/03 08:55:53;;;;;;;2.90;1.33;;;5.50;99.90;;;;;;5076831;28;20469;-69
2023/02/03 08:58:18;;;;;;;3.33;1.50;;;5.60;99.90;;;;;;5085111;28;20075;-69
2023/02/03 09:00:46;;;;;;;4.45;1.58;;;5.70;99.90;;;;;;5082434;28;20020;-70
2023/02/03 09:03:12;;;;;;;4.82;1.77;;;5.70;99.90;;;;;;5081287;28;20469;-68
2023/02/03 09:05:38;;;;;;;2.38;1.42;;;5.70;99.90;;;;;;5080680;28;20081;-68
2023/02/03 09:08:03;;;;;;;4.80;1.75;;;5.70;99.90;;;;;;5083144;28;21424;-69
2023/02/03 09:10:29;;;;;;;5.32;1.50;;;5.80;99.90;;;;;;5068897;28;20119;-70
2023/02/03 09:12:55;;;;;;;2.95;1.30;;;5.70;99.90;;;;;;5087094;28;20027;-68
2023/02/03 09:15:21;;;;;;;2.53;1.10;;;5.70;99.90;;;;;;5084178;28;20102;-69
2023/02/03 09:17:46;;;;;;;2.17;1.25;;;5.80;99.90;;;;;;5087431;28;20117;-70
2023/02/03 09:20:13;;;;;;;2.88;1.30;;;5.90;99.90;;;;;;5093607;28;20051;-69
2023/02/03 09:22:39;;;;;;;2.97;1.02;;;5.90;99.90;;;;;;5084440;28;20036;-67
2023/02/03 09:25:06;;;;;;;2.33;1.20;;;6.00;99.90;;;;;;5101127;28;20032;-69
2023/02/03 09:27:32;;;;;;;3.00;1.17;;;6.10;99.90;;;;;;5081767;28;20074;-69
2023/02/03 09:29:57;;;;;;;2.95;1.20;;;6.10;99.90;;;;;;5095543;28;20028;-70
2023/02/03 09:32:23;;;;;;;2.42;0.90;;;6.20;99.90;;;;;;5080483;28;20028;-69
2023/02/03 09:34:49;;;;;;;1.70;0.73;;;6.30;99.90;;;;;;5090193;28;20401;-69
2023/02/03 09:37:14;;;;;;;5.82;1.08;;;6.50;99.90;;;;;;5064342;28;20036;-69
2023/02/03 09:39:40;;;;;;;3.45;0.85;;;6.70;99.90;;;;;;5080030;28;20071;-69
2023/02/03 09:42:27;;;;;;;1.27;0.82;;;6.80;99.90;;;;;;5089873;28;20035;-68
2023/02/03 09:45:15;;;;;;;2.97;0.90;;;6.90;99.90;;;;;;5088292;28;20074;-69
2023/02/03 09:47:43;;;;;;;4.38;1.05;;;6.90;99.90;;;;;;5089341;28;20028;-69
2023/02/03 09:50:18;;;;;;;3.75;1.00;;;6.90;99.90;;;;;;5085985;28;20063;-69
2023/02/03 09:52:46;;;;;;;1.88;1.15;;;6.90;99.90;;;;;;5089790;28;20058;-69
2023/02/03 09:55:40;;;;;;;1.40;0.90;;;7.00;99.90;;;;;;5089132;28;20024;-69
2023/02/03 09:58:13;;;;;;;3.83;1.00;;;7.00;99.90;;;;;;5092215;28;20028;-70
2023/02/03 10:00:43;;;;;;;3.28;0.88;;;7.00;99.90;;;;;;5079612;28;20035;-69
2023/02/03 10:03:24;;;;;;;0.75;0.70;;;7.00;99.90;;;;;;5079896;28;20047;-67
2023/02/03 10:06:05;;;;;;;3.80;1.00;;;7.00;99.90;;;;;;5078930;28;20025;-68
2023/02/03 10:08:52;;;;;;;1.85;0.80;;;7.10;99.90;;;;;;5081595;28;20430;-68
2023/02/03 10:11:25;;;;;;;2.05;0.80;;;7.20;99.90;;;;;;5075105;28;20080;-67
2023/02/03 10:14:03;;;;;;;2.97;0.90;;;7.30;99.90;;;;;;5087019;28;20028;-63
2023/02/03 10:17:02;;;;;;;3.30;1.00;;;7.30;99.90;;;;;;5079911;28;20032;-62
2023/02/03 10:19:35;;;;;;;2.97;0.80;;;7.40;99.90;;;;;;5081709;28;20024;-65
2023/02/03 10:22:03;;;;;;;1.95;1.10;;;7.40;99.90;;;;;;5094969;28;20042;-66
2023/02/03 10:24:46;;;;;;;1.42;0.90;;;7.50;99.90;;;;;;5098684;28;20040;-65
2023/02/03 10:27:20;;;;;;;2.22;0.80;;;7.60;99.90;;;;;;5076329;28;20127;-65
2023/02/03 10:29:53;;;;;;;2.35;1.13;;;7.60;99.90;;;;;;5078518;28;20055;-66
2023/02/03 10:32:19;;;;;;;3.00;1.15;;;7.70;99.90;;;;;;5096111;28;20012;-65
2023/02/03 10:34:46;;;;;;;2.72;1.08;;;7.70;99.90;;;;;;5096987;28;20027;-65
2023/02/03 10:37:23;;;;;;;1.20;0.80;;;;;;;;;;5097792;28;20028;-66
2023/02/03 10:39:50;;;;;;;4.10;0.88;;;;;;;;;;5087998;28;20035;-66
2023/02/03 10:42:17;;;;;;;2.03;0.85;;;8.00;99.90;;;;;;5089622;28;20104;-65
2023/02/03 10:44:55;;;;;;;3.13;1.02;;;8.00;99.90;;;;;;5087377;28;20031;-65
2023/02/03 10:47:36;;;;;;;4.00;1.58;;;7.90;99.90;;;;;;5083644;28;20033;-66
2023/02/03 10:50:18;;;;;;;1.67;1.02;;;8.00;99.90;;;;;;5083192;28;20543;-67
2023/02/03 10:52:43;;;;;;;5.13;1.13;;;8.10;99.90;;;;;;5081223;28;20036;-67
2023/02/03 10:55:21;;;;;;;2.10;0.95;;;8.20;99.90;;;;;;5078894;28;20043;-66
2023/02/03 10:57:48;;;;;;;1.38;0.85;;;8.30;99.90;;;;;;5081516;28;20435;-66
2023/02/03 11:00:27;;;;;;;1.15;0.90;;;8.50;99.90;;;;;;5074970;28;20078;-66
2023/02/03 11:03:22;;;;;;;2.10;0.97;;;8.50;99.90;;;;;;5087968;28;20020;-66
2023/02/03 11:06:13;;;;;;;2.83;0.60;;;8.50;99.90;;;;;;5085077;28;20102;-67
2023/02/03 11:08:41;;;;;;;2.03;0.55;;;8.70;99.90;;;;;;5077710;28;20469;-67
2023/02/03 11:11:12;;;;;;;0.90;0.40;;;8.70;99.90;;;;;;5084026;28;20036;-67
2023/02/03 11:13:38;;;;;;;0.88;0.60;;;8.90;99.90;;;;;;5085714;28;20101;-67
2023/02/03 11:16:14;;;;;;;3.53;0.52;;;8.90;99.90;;;;;;5087462;28;20035;-67
2023/02/03 11:18:51;;;;;;;1.30;0.47;;;8.70;99.90;;;;;;5084835;28;20044;-66
2023/02/03 11:21:20;;;;;;;1.83;0.75;;;8.60;99.90;;;;;;5085845;28;20855;-67
2023/02/03 11:23:54;;;;;;;2.03;0.50;;;8.40;99.90;;;;;;5080222;28;20086;-67
2023/02/03 11:26:24;;;;;;;1.95;0.40;;;8.30;99.90;;;;;;5083794;28;20042;-67
2023/02/03 11:28:53;;;;;;;1.85;0.60;;;8.10;99.90;;;;;;5085944;28;20024;-67
2023/02/03 11:31:31;;;;;;;1.52;0.55;;;8.00;99.90;;;;;;5076770;28;20093;-66
2023/02/03 11:34:01;;;;;;;0.93;0.60;;;8.00;99.90;;;;;;5086351;28;20093;-67
2023/02/03 11:36:28;;;;;;;3.13;1.20;;;8.20;99.90;;;;;;5081470;28;20028;-66
2023/02/03 11:39:18;;;;;;;3.33;1.02;;;8.20;99.90;;;;;;5089111;28;20258;-66
2023/02/03 11:41:44;;;;;;;3.67;0.52;;;8.30;99.90;;;;;;5077785;28;20060;-66
2023/02/03 11:44:15;;;;;;;1.05;0.40;;;8.40;99.90;;;;;;5076565;28;20097;-67
2023/02/03 11:46:42;;;;;;;0.32;0.32;;;8.50;99.90;;;;;;5084413;28;20042;-65
2023/02/03 11:49:46;;;;;;;1.85;0.60;;;8.50;99.90;;;;;;5088039;28;20031;-66
2023/02/03 11:52:35;;;;;;;0.82;0.50;;;8.50;99.90;;;;;;5077663;28;20029;-66
2023/02/03 11:55:22;;;;;;;2.88;0.75;;;8.50;99.90;;;;;;5084083;28;20052;-66
2023/02/03 11:58:07;;;;;;;0.95;0.52;;;8.40;99.90;;;;;;5079434;28;20034;-66
2023/02/03 12:00:45;;;;;;;2.83;0.38;;;8.40;99.90;;;;;;5081151;28;20028;-67
2023/02/03 12:03:29;;;;;;;1.73;0.77;;;8.50;99.90;;;;;;5077571;28;20439;-68
2023/02/03 12:06:21;;;;;;;2.75;0.63;;;8.50;99.90;;;;;;5079266;28;20032;-73
2023/02/03 12:09:12;;;;;;;1.58;0.68;;;8.50;99.90;;;;;;5080938;28;20024;-73
2023/02/03 12:11:53;;;;;;;2.47;0.80;;;8.50;99.90;;;;;;5087793;28;20031;-71
2023/02/03 12:14:48;;;;;;;2.40;0.57;;;8.50;99.90;;;;;;5082109;28;20051;-72
2023/02/03 12:17:43;;;;;;;0.45;0.32;;;8.60;99.90;;;;;;5075088;28;20032;-73
2023/02/03 12:20:43;;;;;;;1.20;0.35;;;8.50;99.90;;;;;;5080945;28;20496;-69
2023/02/03 12:23:09;;;;;;;0.65;0.30;;;8.50;99.90;;;;;;5078005;28;20025;-68
2023/02/03 12:25:47;;;;;;;2.03;0.60;;;8.50;99.90;;;;;;5081341;28;20028;-69
2023/02/03 12:28:50;;;;;;;0.60;0.40;;;8.50;99.90;;;;;;5073654;28;20078;-69
2023/02/03 12:31:39;;;;;;;0.80;0.57;;;8.50;99.90;;;;;;5083357;28;20048;-67
2023/02/03 12:34:11;;;;;;;0.60;0.50;;;8.50;99.90;;;;;;5078099;28;20028;-67
2023/02/03 12:36:46;;;;;;;0.90;0.60;;;8.60;99.90;;;;;;5081505;28;20453;-67
2023/02/03 12:39:20;;;;;;;2.97;0.40;;;8.70;99.90;;;;;;5082967;28;20021;-66
2023/02/03 12:42:19;;;;;;;0.80;0.30;;;8.70;99.90;;;;;;5084959;28;20571;-66
2023/02/03 12:44:51;;;;;;;0.57;0.40;;;8.70;99.90;;;;;;5086183;28;20052;-68
2023/02/03 12:47:33;;;;;;;1.27;0.60;;;8.60;99.90;;;;;;5093691;28;20127;-67
2023/02/03 12:50:04;;;;;;;1.02;0.50;;;8.60;99.90;;;;;;5094155;28;20032;-69
2023/02/03 12:52:36;;;;;;;0.68;0.20;;;8.50;99.90;;;;;;5105182;28;20496;-68
2023/02/03 12:55:25;;;;;;;0.73;0.57;;;8.40;99.90;;;;;;5084247;28;20443;-69
2023/02/03 12:57:59;;;;;;;1.30;0.60;;;8.40;99.90;;;;;;5079814;28;20040;-66
2023/02/03 13:00:37;;;;;;;0.65;0.30;;;8.40;99.90;;;;;;5082552;28;20457;-67
2023/02/03 13:03:33;;;;;;;2.38;0.50;;;8.30;99.90;;;;;;5092298;28;20020;-84
2023/02/03 13:06:30;;;;;;;0.50;0.40;;;8.30;99.90;;;;;;5092905;28;20101;-69
2023/02/03 13:09:16;;;;;;;0.75;0.40;;;8.30;99.90;;;;;;5088821;28;20088;-68
2023/02/03 13:12:01;;;;;;;0.68;0.47;;;8.30;99.90;;;;;;5084130;28;20029;-70
2023/02/03 13:14:43;;;;;;;0.30;0.30;;;8.30;99.90;;;;;;5093776;28;20459;-69
2023/02/03 13:17:24;;;;;;;0.82;0.35;;;8.30;99.90;;;;;;5091618;28;20111;-67
2023/02/03 13:20:18;;;;;;;0.50;0.38;;;8.30;99.90;;;;;;5089576;28;20314;-69